Athens, Wisconsin
Current Conditions -  °F | °C
As of 6:55 PM on Friday 28 Nov 2014 (Local Time) from KMDZ Reporting Station
Light Snow Light Snow  
Wind Chill:   Ceiling: 10000
Heat Index: 17°   Visibility: 10mi
Dew Point: 14°   Wind: 6mph
Humidity: 87%   Direction: 120°ESE
Pressure: 29.83"   Gusts: NA
Location:  45.03°N, 90.07°W
Report Text: KMDZ 290055Z AUTO 12005KT 10SM -SN SCT022 SCT060 BKN100 M08/M10 A2983 RMK AO2 T10821100
Loading
Personal Weather Stations






























Interactive Weather Map New forecast layout! Learn more

10-Day Weather Forecast

Advertisements
Track Severe Weather on mobile